createdAt,value
2024-04-18T00:00:58.372Z,1001.84
2024-04-18T00:03:31.285Z,1001.82
2024-04-18T00:06:03.961Z,1001.83
2024-04-18T00:08:37.313Z,1001.84
2024-04-18T00:11:10.355Z,1001.86
2024-04-18T00:13:44.212Z,1001.88
2024-04-18T00:16:17.313Z,1001.89
2024-04-18T00:18:50.330Z,1001.90
2024-04-18T00:21:23.300Z,1001.91
2024-04-18T00:23:56.208Z,1001.92
2024-04-18T00:26:29.224Z,1001.92
2024-04-18T00:29:01.922Z,1001.93
2024-04-18T00:31:35.408Z,1001.94
2024-04-18T00:34:08.254Z,1001.95
2024-04-18T00:36:41.591Z,1001.96
2024-04-18T00:39:15.469Z,1001.96
2024-04-18T00:41:49.275Z,1001.96
2024-04-18T00:44:22.346Z,1001.96
2024-04-18T00:46:55.263Z,1001.97
2024-04-18T00:49:28.156Z,1001.96
2024-04-18T00:52:01.236Z,1001.95
2024-04-18T00:54:34.155Z,1001.95
2024-04-18T00:57:07.311Z,1001.94
2024-04-18T00:59:40.149Z,1001.94
2024-04-18T01:02:13.144Z,1001.93
2024-04-18T01:04:46.440Z,1001.93
2024-04-18T01:07:19.176Z,1001.93
2024-04-18T01:09:52.160Z,1001.92
2024-04-18T01:12:25.156Z,1001.92
2024-04-18T01:14:58.248Z,1001.93
2024-04-18T01:17:31.443Z,1001.94
2024-04-18T01:20:04.446Z,1001.94
2024-04-18T01:22:38.388Z,1001.93
2024-04-18T01:25:11.162Z,1001.93
2024-04-18T01:27:44.569Z,1001.94
2024-04-18T01:30:17.461Z,1001.95
2024-04-18T01:32:51.491Z,1001.96
2024-04-18T01:35:24.367Z,1001.95
2024-04-18T01:37:57.286Z,1001.95
2024-04-18T01:40:32.233Z,1001.96
2024-04-18T01:43:03.329Z,1001.96
2024-04-18T01:45:36.236Z,1001.97
2024-04-18T01:48:09.375Z,1001.98
2024-04-18T01:50:42.367Z,1001.99
2024-04-18T01:53:15.178Z,1002.00
2024-04-18T01:55:48.475Z,1002.00
2024-04-18T01:58:22.225Z,1002.02
2024-04-18T02:00:55.716Z,1002.02
2024-04-18T02:03:29.395Z,1002.03
2024-04-18T02:06:02.505Z,1002.05
2024-04-18T02:08:36.339Z,1002.07
2024-04-18T02:11:09.417Z,1002.09
2024-04-18T02:13:42.207Z,1002.11
2024-04-18T02:16:15.442Z,1002.11
2024-04-18T02:18:48.500Z,1002.12
2024-04-18T02:21:21.508Z,1002.13
2024-04-18T02:23:54.578Z,1002.15
2024-04-18T02:26:28.294Z,1002.16
2024-04-18T02:29:01.360Z,1002.16
2024-04-18T02:31:34.481Z,1002.17
2024-04-18T02:34:07.204Z,1002.17
2024-04-18T02:36:40.535Z,1002.17
2024-04-18T02:39:13.485Z,1002.16
2024-04-18T02:41:46.678Z,1002.15
2024-04-18T02:44:20.459Z,1002.14
2024-04-18T02:46:53.602Z,1002.14
2024-04-18T02:49:26.518Z,1002.14
2024-04-18T02:51:59.389Z,1002.13
2024-04-18T02:54:32.671Z,1002.14
2024-04-18T02:57:05.141Z,1002.15
2024-04-18T02:59:38.264Z,1002.17
2024-04-18T03:02:11.524Z,1002.16
2024-04-18T03:04:44.553Z,1002.15
2024-04-18T03:07:17.334Z,1002.14
2024-04-18T03:09:50.757Z,1002.15
2024-04-18T03:12:24.555Z,1002.15
2024-04-18T03:14:57.515Z,1002.18
2024-04-18T03:17:30.619Z,1002.21
2024-04-18T03:20:03.445Z,1002.24
2024-04-18T03:22:36.601Z,1002.25
2024-04-18T03:25:09.562Z,1002.29
2024-04-18T03:27:42.429Z,1002.31
2024-04-18T03:30:15.348Z,1002.34
2024-04-18T03:32:48.558Z,1002.37
2024-04-18T03:35:21.558Z,1002.40
2024-04-18T03:37:54.659Z,1002.43
2024-04-18T03:40:28.627Z,1002.46
2024-04-18T03:43:02.185Z,1002.51
2024-04-18T03:45:35.618Z,1002.54
2024-04-18T03:48:08.456Z,1002.57
2024-04-18T03:50:41.614Z,1002.58
2024-04-18T03:53:14.762Z,1002.60
2024-04-18T03:55:48.616Z,1002.62
2024-04-18T03:58:21.568Z,1002.65
2024-04-18T04:00:54.472Z,1002.68
2024-04-18T04:03:27.684Z,1002.71
2024-04-18T04:06:00.268Z,1002.73
2024-04-18T04:08:33.647Z,1002.76
2024-04-18T04:11:06.244Z,1002.77
2024-04-18T04:13:39.616Z,1002.79
2024-04-18T04:16:12.696Z,1002.80
2024-04-18T04:18:46.669Z,1002.84
2024-04-18T04:21:19.606Z,1002.86
2024-04-18T04:23:52.414Z,1002.89
2024-04-18T04:26:25.638Z,1002.91
2024-04-18T04:28:58.654Z,1002.95
2024-04-18T04:31:31.610Z,1002.98
2024-04-18T04:34:04.592Z,1003.02
2024-04-18T04:36:37.452Z,1003.05
2024-04-18T04:39:10.316Z,1003.09
2024-04-18T04:41:43.627Z,1003.12
2024-04-18T04:44:16.691Z,1003.14
2024-04-18T04:46:50.762Z,1003.17
2024-04-18T04:49:24.879Z,1003.21
2024-04-18T04:51:58.422Z,1003.24
2024-04-18T04:54:31.358Z,1003.29
2024-04-18T04:57:04.303Z,1003.33
2024-04-18T04:59:37.629Z,1003.36
2024-04-18T05:02:10.326Z,1003.40
2024-04-18T05:04:43.469Z,1003.44
2024-04-18T05:07:16.689Z,1003.47
2024-04-18T05:09:49.838Z,1003.51
2024-04-18T05:12:22.669Z,1003.55
2024-04-18T05:14:55.524Z,1003.59
2024-04-18T05:17:28.714Z,1003.63
2024-04-18T05:20:01.516Z,1003.67
2024-04-18T05:22:34.552Z,1003.71
2024-04-18T05:25:12.628Z,1003.73
2024-04-18T05:27:42.816Z,1003.76
2024-04-18T05:30:15.542Z,1003.78
2024-04-18T05:32:48.611Z,1003.82
2024-04-18T05:35:21.396Z,1003.86
2024-04-18T05:37:54.983Z,1003.89
2024-04-18T05:40:28.603Z,1003.93
2024-04-18T05:43:01.450Z,1003.94
2024-04-18T05:45:34.749Z,1003.98
2024-04-18T05:48:07.766Z,1004.03
2024-04-18T05:50:40.385Z,1004.07
2024-04-18T05:53:14.146Z,1004.11
2024-04-18T05:55:47.414Z,1004.14
2024-04-18T05:58:20.387Z,1004.19
2024-04-18T06:00:53.566Z,1004.23
2024-04-18T06:03:26.574Z,1004.27
2024-04-18T06:05:59.633Z,1004.30
2024-04-18T06:08:32.526Z,1004.34
2024-04-18T06:11:05.494Z,1004.39
2024-04-18T06:13:38.620Z,1004.43
2024-04-18T06:16:11.926Z,1004.45
2024-04-18T06:18:44.455Z,1004.48
2024-04-18T06:21:17.775Z,1004.51
2024-04-18T06:23:50.680Z,1004.53
2024-04-18T06:26:23.638Z,1004.56
2024-04-18T06:28:56.721Z,1004.60
2024-04-18T06:31:29.612Z,1004.63
2024-04-18T06:34:02.714Z,1004.67
2024-04-18T06:36:35.705Z,1004.71
2024-04-18T06:39:08.458Z,1004.74
2024-04-18T06:41:41.877Z,1004.76
2024-04-18T06:44:14.523Z,1004.79
2024-04-18T06:46:53.261Z,1004.83
2024-04-18T06:49:20.471Z,1004.87
2024-04-18T06:51:53.855Z,1004.91
2024-04-18T06:54:26.509Z,1004.94
2024-04-18T06:56:59.861Z,1004.97
2024-04-18T06:59:32.846Z,1004.99
2024-04-18T07:02:05.748Z,1005.01
2024-04-18T07:04:38.741Z,1005.05
2024-04-18T07:07:11.791Z,1005.08
2024-04-18T07:09:47.366Z,1005.11
2024-04-18T07:12:17.889Z,1005.14
2024-04-18T07:14:50.662Z,1005.18
2024-04-18T07:17:23.700Z,1005.21
2024-04-18T07:19:56.908Z,1005.24
2024-04-18T07:22:29.886Z,1005.26
2024-04-18T07:25:02.864Z,1005.28
2024-04-18T07:27:35.861Z,1005.32
2024-04-18T07:30:08.774Z,1005.35
2024-04-18T07:32:42.085Z,1005.37
2024-04-18T07:35:15.552Z,1005.42
2024-04-18T07:37:48.970Z,1005.45
2024-04-18T07:40:22.956Z,1005.47
2024-04-18T07:42:56.185Z,1005.50
2024-04-18T07:45:29.360Z,1005.51
2024-04-18T07:48:03.136Z,1005.54
2024-04-18T07:50:35.879Z,1005.58
2024-04-18T07:53:10.156Z,1005.60
2024-04-18T07:55:41.720Z,1005.64
2024-04-18T07:58:15.261Z,1005.68
2024-04-18T08:00:49.249Z,1005.71
2024-04-18T08:03:23.076Z,1005.76
2024-04-18T08:05:56.343Z,1005.79
2024-04-18T08:08:29.277Z,1005.81
2024-04-18T08:11:16.280Z,1005.83
2024-04-18T08:13:35.746Z,1005.86
2024-04-18T08:16:05.861Z,1005.88
2024-04-18T08:18:38.861Z,1005.90
2024-04-18T08:21:11.823Z,1005.93
2024-04-18T08:23:44.928Z,1005.97
2024-04-18T08:26:17.781Z,1006.02
2024-04-18T08:28:50.792Z,1006.05
2024-04-18T08:31:25.263Z,1006.10
2024-04-18T08:34:07.294Z,1006.15
2024-04-18T08:36:31.653Z,1006.18
2024-04-18T08:39:05.744Z,1006.21
2024-04-18T08:41:41.783Z,1006.22
2024-04-18T08:44:11.913Z,1006.24
2024-04-18T08:46:45.042Z,1006.27
2024-04-18T08:49:17.716Z,1006.30
2024-04-18T08:51:50.862Z,1006.32
2024-04-18T08:54:23.724Z,1006.32
2024-04-18T08:56:56.847Z,1006.33
2024-04-18T08:59:29.705Z,1006.35
2024-04-18T09:02:02.680Z,1006.39
2024-04-18T09:04:35.957Z,1006.41
2024-04-18T09:07:08.844Z,1006.43
2024-04-18T09:09:41.984Z,1006.44
2024-04-18T09:12:14.908Z,1006.46
2024-04-18T09:14:47.844Z,1006.49
2024-04-18T09:17:20.862Z,1006.51
2024-04-18T09:19:53.844Z,1006.54
2024-04-18T09:22:26.718Z,1006.58
2024-04-18T09:24:59.892Z,1006.60
2024-04-18T09:27:33.057Z,1006.62
2024-04-18T09:30:06.288Z,1006.65
2024-04-18T09:32:42.049Z,1006.68
2024-04-18T09:35:14.895Z,1006.71
2024-04-18T09:37:53.435Z,1006.72
2024-04-18T09:40:20.842Z,1006.73
2024-04-18T09:42:53.886Z,1006.74
2024-04-18T09:45:26.979Z,1006.74
2024-04-18T09:48:00.278Z,1006.76
2024-04-18T09:50:32.743Z,1006.78
2024-04-18T09:53:05.957Z,1006.79
2024-04-18T09:55:38.925Z,1006.81
2024-04-18T09:58:12.071Z,1006.82
2024-04-18T10:00:44.936Z,1006.84
2024-04-18T10:03:17.867Z,1006.86
2024-04-18T10:05:51.050Z,1006.88
2024-04-18T10:08:24.042Z,1006.91
2024-04-18T10:10:56.940Z,1006.92
2024-04-18T10:13:29.762Z,1006.95
2024-04-18T10:16:16.923Z,1006.97
2024-04-18T10:18:52.650Z,1006.99
2024-04-18T10:21:32.047Z,1007.00
2024-04-18T10:23:56.117Z,1007.02
2024-04-18T10:26:29.045Z,1007.05
2024-04-18T10:29:01.996Z,1007.06
2024-04-18T10:31:35.248Z,1007.08
2024-04-18T10:34:08.052Z,1007.08
2024-04-18T10:36:42.799Z,1007.11
2024-04-18T10:39:14.135Z,1007.13
2024-04-18T10:41:47.013Z,1007.15
2024-04-18T10:44:19.992Z,1007.16
2024-04-18T10:46:53.004Z,1007.18
2024-04-18T10:49:26.127Z,1007.21
2024-04-18T10:51:58.952Z,1007.21
2024-04-18T10:54:32.069Z,1007.22
2024-04-18T10:57:05.170Z,1007.22
2024-04-18T10:59:37.950Z,1007.23
2024-04-18T11:02:10.886Z,1007.23
2024-04-18T11:04:44.030Z,1007.24
2024-04-18T11:07:16.999Z,1007.24
2024-04-18T11:09:50.031Z,1007.24
2024-04-18T11:12:23.037Z,1007.25
2024-04-18T11:14:56.010Z,1007.23
2024-04-18T11:17:29.159Z,1007.22
2024-04-18T11:20:01.925Z,1007.23
2024-04-18T11:22:35.051Z,1007.23
2024-04-18T11:25:08.072Z,1007.23
2024-04-18T11:27:41.118Z,1007.23
2024-04-18T11:30:14.080Z,1007.25
2024-04-18T11:32:47.106Z,1007.25
2024-04-18T11:35:20.022Z,1007.25
2024-04-18T11:37:53.143Z,1007.24
2024-04-18T11:40:26.057Z,1007.23
2024-04-18T11:42:59.094Z,1007.22
2024-04-18T11:45:32.395Z,1007.21
2024-04-18T11:48:06.527Z,1007.20
2024-04-18T11:50:38.903Z,1007.20
2024-04-18T11:53:12.249Z,1007.20
2024-04-18T11:55:45.144Z,1007.21
2024-04-18T11:58:18.138Z,1007.21
2024-04-18T12:00:51.130Z,1007.23
2024-04-18T12:03:24.326Z,1007.23
2024-04-18T12:05:57.133Z,1007.22
2024-04-18T12:08:30.091Z,1007.22
2024-04-18T12:11:02.983Z,1007.22
2024-04-18T12:13:36.108Z,1007.23
2024-04-18T12:16:09.245Z,1007.23
2024-04-18T12:18:42.169Z,1007.24
2024-04-18T12:21:15.153Z,1007.26
2024-04-18T12:23:48.126Z,1007.27
2024-04-18T12:26:21.302Z,1007.27
2024-04-18T12:28:54.130Z,1007.29
2024-04-18T12:31:27.261Z,1007.29
2024-04-18T12:34:00.183Z,1007.30
2024-04-18T12:36:33.241Z,1007.32
2024-04-18T12:39:07.629Z,1007.32
2024-04-18T12:41:40.365Z,1007.33
2024-04-18T12:44:13.373Z,1007.33
2024-04-18T12:46:46.186Z,1007.33
2024-04-18T12:49:19.394Z,1007.34
2024-04-18T12:51:52.291Z,1007.34
2024-04-18T12:54:25.055Z,1007.35
2024-04-18T12:56:58.271Z,1007.35
2024-04-18T12:59:31.176Z,1007.34
2024-04-18T13:02:04.052Z,1007.33
2024-04-18T13:04:37.418Z,1007.32
2024-04-18T13:07:10.143Z,1007.31
2024-04-18T13:09:43.070Z,1007.31
2024-04-18T13:12:16.251Z,1007.32
2024-04-18T13:14:49.370Z,1007.32
2024-04-18T13:17:22.201Z,1007.32
2024-04-18T13:19:55.051Z,1007.32
2024-04-18T13:22:28.535Z,1007.33
2024-04-18T13:25:02.407Z,1007.36
2024-04-18T13:27:35.464Z,1007.40
2024-04-18T13:30:08.394Z,1007.44
2024-04-18T13:32:41.136Z,1007.50
2024-04-18T13:35:14.216Z,1007.58
2024-04-18T13:37:47.236Z,1007.62
2024-04-18T13:40:20.315Z,1007.68
2024-04-18T13:42:53.399Z,1007.71
2024-04-18T13:45:26.156Z,1007.73
2024-04-18T13:47:59.386Z,1007.76
2024-04-18T13:50:32.186Z,1007.80
2024-04-18T13:53:05.251Z,1007.84
2024-04-18T13:55:38.304Z,1007.89
2024-04-18T13:58:11.450Z,1007.94
2024-04-18T14:00:44.556Z,1007.94
2024-04-18T14:03:19.501Z,1007.93
2024-04-18T14:05:50.297Z,1007.90
2024-04-18T14:08:23.241Z,1007.84
2024-04-18T14:10:56.449Z,1007.79
2024-04-18T14:13:29.301Z,1007.73
2024-04-18T14:16:02.496Z,1007.69
2024-04-18T14:18:35.332Z,1007.67
2024-04-18T14:21:08.685Z,1007.64
2024-04-18T14:23:42.235Z,1007.62
2024-04-18T14:26:15.324Z,1007.61
2024-04-18T14:28:48.150Z,1007.60
2024-04-18T14:31:22.559Z,1007.57
2024-04-18T14:33:55.740Z,1007.57
2024-04-18T14:36:30.044Z,1007.55
2024-04-18T14:39:03.449Z,1007.55
2024-04-18T14:41:36.341Z,1007.56
2024-04-18T14:44:09.432Z,1007.56
2024-04-18T14:46:42.438Z,1007.57
2024-04-18T14:49:15.323Z,1007.56
2024-04-18T14:51:48.205Z,1007.54
2024-04-18T14:54:21.183Z,1007.54
2024-04-18T14:56:54.172Z,1007.54
2024-04-18T14:59:27.381Z,1007.53
2024-04-18T15:02:00.671Z,1007.52
2024-04-18T15:04:34.458Z,1007.52
2024-04-18T15:07:21.163Z,1007.52
2024-04-18T15:09:54.387Z,1007.53
2024-04-18T15:12:27.466Z,1007.54
2024-04-18T15:15:00.456Z,1007.55
2024-04-18T15:17:33.633Z,1007.58
2024-04-18T15:20:06.428Z,1007.57
2024-04-18T15:22:39.368Z,1007.54
2024-04-18T15:25:12.369Z,1007.49
2024-04-18T15:27:45.369Z,1007.46
2024-04-18T15:30:18.519Z,1007.41
2024-04-18T15:32:51.632Z,1007.39
2024-04-18T15:35:24.410Z,1007.38
2024-04-18T15:37:57.494Z,1007.36
2024-04-18T15:40:30.406Z,1007.36
2024-04-18T15:43:03.467Z,1007.36
2024-04-18T15:45:36.493Z,1007.38
2024-04-18T15:48:09.771Z,1007.41
2024-04-18T15:50:42.287Z,1007.51
2024-04-18T15:53:15.469Z,1007.61
2024-04-18T15:55:49.060Z,1007.69
2024-04-18T15:58:22.651Z,1007.79
2024-04-18T16:00:55.886Z,1007.88
2024-04-18T16:03:31.565Z,1007.96
2024-04-18T16:06:04.482Z,1008.03
2024-04-18T16:08:37.468Z,1008.07
2024-04-18T16:11:10.601Z,1008.05
2024-04-18T16:13:43.653Z,1008.02
2024-04-18T16:16:16.342Z,1007.97
2024-04-18T16:18:49.589Z,1007.92
2024-04-18T16:21:22.526Z,1007.89
2024-04-18T16:23:55.423Z,1007.87
2024-04-18T16:26:28.469Z,1007.85
2024-04-18T16:29:01.591Z,1007.83
2024-04-18T16:31:35.795Z,1007.82
2024-04-18T16:34:07.440Z,1007.82
2024-04-18T16:36:43.214Z,1007.82
2024-04-18T16:39:13.598Z,1007.82
2024-04-18T16:41:46.332Z,1007.84
2024-04-18T16:44:19.506Z,1007.87
2024-04-18T16:46:52.359Z,1007.91
2024-04-18T16:49:25.566Z,1007.94
2024-04-18T16:51:58.397Z,1007.98
2024-04-18T16:54:31.519Z,1008.00
2024-04-18T16:57:04.552Z,1008.03
2024-04-18T16:59:37.534Z,1008.03
2024-04-18T17:02:10.335Z,1008.05
2024-04-18T17:04:43.697Z,1008.06
2024-04-18T17:07:16.372Z,1008.08
2024-04-18T17:09:49.753Z,1008.09
2024-04-18T17:12:22.544Z,1008.11
2024-04-18T17:14:55.528Z,1008.11
2024-04-18T17:17:28.793Z,1008.11
2024-04-18T17:20:01.869Z,1008.10
2024-04-18T17:22:34.615Z,1008.10
2024-04-18T17:25:07.820Z,1008.10
2024-04-18T17:27:40.750Z,1008.09
2024-04-18T17:30:13.411Z,1008.09
2024-04-18T17:32:46.443Z,1008.09
2024-04-18T17:35:19.623Z,1008.09
2024-04-18T17:37:52.596Z,1008.09
2024-04-18T17:40:25.820Z,1008.07
2024-04-18T17:42:58.783Z,1008.09
2024-04-18T17:45:31.859Z,1008.11
2024-04-18T17:48:04.877Z,1008.13
2024-04-18T17:50:37.720Z,1008.15
2024-04-18T17:53:10.838Z,1008.17
2024-04-18T17:55:43.765Z,1008.19
2024-04-18T17:58:17.067Z,1008.21
2024-04-18T18:00:50.803Z,1008.23
2024-04-18T18:03:23.934Z,1008.24
2024-04-18T18:05:56.792Z,1008.26
2024-04-18T18:08:29.845Z,1008.28
2024-04-18T18:11:02.865Z,1008.31
2024-04-18T18:13:35.825Z,1008.34
2024-04-18T18:16:08.660Z,1008.35
2024-04-18T18:18:41.571Z,1008.35
2024-04-18T18:21:14.686Z,1008.37
2024-04-18T18:23:47.497Z,1008.38
2024-04-18T18:26:20.770Z,1008.40
2024-04-18T18:28:53.475Z,1008.42
2024-04-18T18:31:26.625Z,1008.45
2024-04-18T18:33:59.532Z,1008.48
2024-04-18T18:36:32.698Z,1008.49
2024-04-18T18:39:05.723Z,1008.53
2024-04-18T18:41:38.884Z,1008.57
2024-04-18T18:44:11.694Z,1008.60
2024-04-18T18:46:44.510Z,1008.63
2024-04-18T18:49:17.879Z,1008.67
2024-04-18T18:51:50.627Z,1008.71
2024-04-18T18:54:23.711Z,1008.73
2024-04-18T18:56:56.554Z,1008.75
2024-04-18T18:59:29.825Z,1008.79
2024-04-18T19:02:02.616Z,1008.81
2024-04-18T19:04:35.835Z,1008.85
2024-04-18T19:07:08.602Z,1008.87
2024-04-18T19:09:41.606Z,1008.89
2024-04-18T19:12:14.795Z,1008.91
2024-04-18T19:14:47.586Z,1008.93
2024-04-18T19:17:20.856Z,1008.96
2024-04-18T19:19:53.903Z,1008.96
2024-04-18T19:22:26.693Z,1008.96
2024-04-18T19:24:59.846Z,1008.97
2024-04-18T19:27:33.190Z,1008.99
2024-04-18T19:30:06.975Z,1009.01
2024-04-18T19:32:39.813Z,1009.02
2024-04-18T19:35:14.899Z,1009.02
2024-04-18T19:37:45.624Z,1009.02
2024-04-18T19:40:18.782Z,1009.02
2024-04-18T19:42:51.745Z,1009.03
2024-04-18T19:45:25.004Z,1009.03
2024-04-18T19:47:57.853Z,1009.04
2024-04-18T19:50:30.738Z,1009.04
2024-04-18T19:53:03.803Z,1009.05
2024-04-18T19:55:36.973Z,1009.06
2024-04-18T19:58:09.748Z,1009.06
2024-04-18T20:00:42.746Z,1009.06
2024-04-18T20:03:16.820Z,1009.06
2024-04-18T20:05:49.900Z,1009.05
2024-04-18T20:08:22.775Z,1009.05
2024-04-18T20:10:55.924Z,1009.05
2024-04-18T20:13:29.175Z,1009.04
2024-04-18T20:16:02.652Z,1009.02
2024-04-18T20:18:36.156Z,1009.01
2024-04-18T20:21:09.043Z,1009.00
2024-04-18T20:23:41.646Z,1008.98
2024-04-18T20:26:14.801Z,1009.00
2024-04-18T20:28:47.678Z,1009.01
2024-04-18T20:31:21.011Z,1009.02
2024-04-18T20:33:53.831Z,1009.02
2024-04-18T20:36:27.195Z,1009.03
2024-04-18T20:39:02.997Z,1009.02
2024-04-18T20:41:35.815Z,1009.00
2024-04-18T20:44:08.938Z,1008.98
2024-04-18T20:46:42.134Z,1008.95
2024-04-18T20:49:16.048Z,1008.92
2024-04-18T20:51:48.800Z,1008.90
2024-04-18T20:54:22.080Z,1008.88
2024-04-18T20:56:54.823Z,1008.87
2024-04-18T20:59:27.867Z,1008.86
2024-04-18T21:02:01.250Z,1008.84
2024-04-18T21:04:35.079Z,1008.83
2024-04-18T21:07:08.032Z,1008.85
2024-04-18T21:09:41.335Z,1008.86
2024-04-18T21:12:15.231Z,1008.87
2024-04-18T21:14:48.821Z,1008.88
2024-04-18T21:17:22.093Z,1008.90
2024-04-18T21:19:54.943Z,1008.93
2024-04-18T21:22:27.997Z,1008.94
2024-04-18T21:25:01.099Z,1008.96
2024-04-18T21:27:34.139Z,1008.96
2024-04-18T21:30:06.997Z,1008.98
2024-04-18T21:32:40.082Z,1008.97
2024-04-18T21:35:13.244Z,1008.98
2024-04-18T21:37:46.824Z,1008.98
2024-04-18T21:40:21.884Z,1008.98
2024-04-18T21:42:54.964Z,1008.98
2024-04-18T21:45:29.368Z,1008.97
2024-04-18T21:48:03.298Z,1008.96
2024-04-18T21:50:36.976Z,1008.94
2024-04-18T21:53:10.079Z,1008.95
2024-04-18T21:55:43.055Z,1008.95
2024-04-18T21:58:16.097Z,1008.95
2024-04-18T22:00:48.948Z,1008.94
2024-04-18T22:03:22.065Z,1008.93
2024-04-18T22:05:54.875Z,1008.92
2024-04-18T22:08:28.078Z,1008.92
2024-04-18T22:11:01.008Z,1008.92
2024-04-18T22:13:34.226Z,1008.89
2024-04-18T22:16:08.093Z,1008.87
2024-04-18T22:18:41.212Z,1008.86
2024-04-18T22:21:14.389Z,1008.83
2024-04-18T22:23:51.601Z,1008.80
2024-04-18T22:26:21.957Z,1008.79
2024-04-18T22:28:55.158Z,1008.77
2024-04-18T22:31:28.077Z,1008.74
2024-04-18T22:34:01.168Z,1008.72
2024-04-18T22:36:34.300Z,1008.71
2024-04-18T22:39:08.234Z,1008.72
2024-04-18T22:41:41.117Z,1008.73
2024-04-18T22:44:14.309Z,1008.71
2024-04-18T22:46:48.228Z,1008.71
2024-04-18T22:49:21.371Z,1008.70
2024-04-18T22:51:54.943Z,1008.72
2024-04-18T22:54:28.413Z,1008.72
2024-04-18T22:57:02.388Z,1008.72
2024-04-18T22:59:36.346Z,1008.73
2024-04-18T23:02:10.468Z,1008.75
2024-04-18T23:04:43.540Z,1008.76
2024-04-18T23:07:17.404Z,1008.78
2024-04-18T23:09:51.384Z,1008.79
2024-04-18T23:12:25.427Z,1008.78
2024-04-18T23:14:58.998Z,1008.77
2024-04-18T23:17:32.497Z,1008.77
2024-04-18T23:20:06.330Z,1008.78
2024-04-18T23:22:40.415Z,1008.76
2024-04-18T23:25:14.368Z,1008.75
2024-04-18T23:27:48.530Z,1008.73
2024-04-18T23:30:22.398Z,1008.71
2024-04-18T23:32:56.095Z,1008.68
2024-04-18T23:35:29.406Z,1008.64
2024-04-18T23:38:03.377Z,1008.62
2024-04-18T23:40:37.404Z,1008.57
2024-04-18T23:43:11.350Z,1008.53
2024-04-18T23:45:45.671Z,1008.50
2024-04-18T23:48:19.570Z,1008.48
2024-04-18T23:50:53.250Z,1008.46
2024-04-18T23:53:26.369Z,1008.43
2024-04-18T23:56:00.130Z,1008.41
2024-04-18T23:58:33.611Z,1008.37
